createdAt,value
2022-12-01T00:01:36.059Z,94.20
2022-12-01T00:04:03.999Z,93.50
2022-12-01T00:06:31.871Z,93.70
2022-12-01T00:09:20.286Z,93.80
2022-12-01T00:11:48.847Z,93.70
2022-12-01T00:14:16.735Z,93.50
2022-12-01T00:16:44.857Z,92.80
2022-12-01T00:19:12.946Z,92.80
2022-12-01T00:21:40.780Z,92.80
2022-12-01T00:24:11.649Z,92.70
2022-12-01T00:26:39.869Z,92.50
2022-12-01T00:29:08.801Z,91.60
2022-12-01T00:31:36.997Z,91.60
2022-12-01T00:34:09.677Z,90.80
2022-12-01T00:36:39.775Z,91.50
2022-12-01T00:39:08.463Z,92.00
2022-12-01T00:41:36.226Z,92.30
2022-12-01T00:44:04.280Z,92.20
2022-12-01T00:46:32.178Z,92.00
2022-12-01T00:49:00.008Z,92.30
2022-12-01T00:51:27.781Z,92.20
2022-12-01T00:53:55.580Z,92.00
2022-12-01T00:56:23.357Z,92.00
2022-12-01T00:58:51.191Z,91.10
2022-12-01T01:01:19.612Z,91.00
2022-12-01T01:03:47.804Z,91.10
2022-12-01T01:06:16.600Z,89.70
2022-12-01T01:08:46.272Z,90.20
2022-12-01T01:11:14.091Z,89.80
2022-12-01T01:13:41.965Z,88.60
2022-12-01T01:16:20.943Z,90.50
2022-12-01T01:18:50.001Z,90.10
2022-12-01T01:21:21.264Z,89.60
2022-12-01T01:23:50.333Z,89.20
2022-12-01T01:26:22.845Z,89.00
2022-12-01T01:28:51.762Z,87.60
2022-12-01T01:31:25.140Z,88.30
2022-12-01T01:33:52.948Z,89.20
2022-12-01T01:36:20.954Z,89.20
2022-12-01T01:38:51.648Z,88.40
2022-12-01T01:41:21.050Z,88.70
2022-12-01T01:43:56.070Z,89.20
2022-12-01T01:46:29.769Z,88.60
2022-12-01T01:49:11.300Z,88.80
2022-12-01T01:51:54.023Z,89.10
2022-12-01T01:54:33.050Z,89.50
2022-12-01T01:57:02.215Z,89.90
2022-12-01T01:59:49.186Z,89.80
2022-12-01T02:02:17.639Z,88.10
2022-12-01T02:04:51.378Z,90.80
2022-12-01T02:07:20.699Z,90.70
2022-12-01T02:09:48.801Z,89.70
2022-12-01T02:12:31.590Z,89.10
2022-12-01T02:15:37.035Z,88.60
2022-12-01T02:18:29.895Z,88.30
2022-12-01T02:21:21.965Z,88.50
2022-12-01T02:24:29.128Z,88.20
2022-12-01T02:26:59.851Z,87.90
2022-12-01T02:29:59.274Z,87.50
2022-12-01T02:33:27.927Z,87.70
2022-12-01T02:36:22.408Z,86.10
2022-12-01T02:38:58.267Z,86.30
2022-12-01T02:41:47.755Z,87.10
2022-12-01T02:44:44.701Z,87.30
2022-12-01T02:47:17.229Z,86.80
2022-12-01T02:49:52.899Z,87.50
2022-12-01T02:52:24.004Z,88.10
2022-12-01T02:54:53.297Z,88.30
2022-12-01T02:57:24.866Z,89.00
2022-12-01T02:59:55.095Z,87.60
2022-12-01T03:02:50.580Z,88.30
2022-12-01T03:05:24.599Z,88.10
2022-12-01T03:08:08.384Z,88.30
2022-12-01T03:10:59.218Z,86.20
2022-12-01T03:14:09.497Z,86.30
2022-12-01T03:17:09.137Z,87.70
2022-12-01T03:20:11.757Z,87.90
2022-12-01T03:22:51.636Z,86.70
2022-12-01T03:25:21.937Z,86.80
2022-12-01T03:28:20.124Z,87.60
2022-12-01T03:30:46.649Z,87.70
2022-12-01T03:33:25.600Z,86.60
2022-12-01T03:36:01.402Z,85.50
2022-12-01T03:38:31.977Z,84.80
2022-12-01T03:41:10.879Z,86.50
2022-12-01T03:43:44.791Z,85.90
2022-12-01T03:46:46.888Z,86.40
2022-12-01T03:49:17.211Z,85.80
2022-12-01T03:52:32.913Z,85.80
2022-12-01T03:55:21.006Z,85.90
2022-12-01T03:58:29.372Z,85.70
2022-12-01T04:00:58.527Z,85.60
2022-12-01T04:03:27.119Z,86.10
2022-12-01T04:05:55.795Z,85.80
2022-12-01T04:08:23.924Z,86.10
2022-12-01T04:10:51.980Z,86.60
2022-12-01T04:13:23.322Z,86.50
2022-12-01T04:15:54.995Z,86.20
2022-12-01T04:18:22.903Z,86.70
2022-12-01T04:20:51.054Z,86.70
2022-12-01T04:23:37.673Z,86.50
2022-12-01T04:26:06.712Z,86.80
2022-12-01T04:28:36.767Z,87.30
2022-12-01T04:31:04.670Z,87.60
2022-12-01T04:33:32.565Z,88.70
2022-12-01T04:36:01.340Z,88.20
2022-12-01T04:38:30.981Z,88.40
2022-12-01T04:40:59.036Z,87.50
2022-12-01T04:43:26.838Z,88.70
2022-12-01T04:45:54.603Z,87.50
2022-12-01T04:48:22.379Z,88.50
2022-12-01T04:50:50.363Z,87.80
2022-12-01T04:53:18.156Z,88.30
2022-12-01T04:55:45.956Z,88.60
2022-12-01T04:58:13.804Z,88.60
2022-12-01T05:00:41.569Z,88.10
2022-12-01T05:03:14.736Z,88.30
2022-12-01T05:05:43.093Z,88.70
2022-12-01T05:08:11.139Z,88.80
2022-12-01T05:10:39.066Z,88.80
2022-12-01T05:13:06.967Z,88.80
2022-12-01T05:15:34.781Z,89.20
2022-12-01T05:18:02.593Z,89.40
2022-12-01T05:20:48.774Z,89.30
2022-12-01T05:23:17.261Z,89.40
2022-12-01T05:25:45.174Z,89.60
2022-12-01T05:28:13.008Z,90.00
2022-12-01T05:30:40.912Z,89.60
2022-12-01T05:33:09.104Z,89.50
2022-12-01T05:35:37.052Z,89.60
2022-12-01T05:38:07.974Z,89.40
2022-12-01T05:40:37.522Z,89.60
2022-12-01T05:43:06.103Z,89.00
2022-12-01T05:45:34.741Z,89.60
2022-12-01T05:48:02.965Z,88.70
2022-12-01T05:50:31.803Z,89.70
2022-12-01T05:52:59.712Z,88.80
2022-12-01T05:55:27.571Z,90.10
2022-12-01T05:57:55.403Z,90.70
2022-12-01T06:00:23.214Z,90.30
2022-12-01T06:02:51.016Z,90.80
2022-12-01T06:05:18.782Z,90.80
2022-12-01T06:07:46.806Z,90.70
2022-12-01T06:10:14.810Z,89.50
2022-12-01T06:12:42.596Z,88.70
2022-12-01T06:15:12.454Z,91.00
2022-12-01T06:17:40.703Z,91.00
2022-12-01T06:20:10.457Z,90.70
2022-12-01T06:22:38.249Z,89.70
2022-12-01T06:25:07.002Z,89.90
2022-12-01T06:27:34.782Z,89.90
2022-12-01T06:30:03.880Z,90.30
2022-12-01T06:32:31.670Z,90.50
2022-12-01T06:34:59.449Z,90.40
2022-12-01T06:37:28.424Z,90.00
2022-12-01T06:39:56.403Z,89.20
2022-12-01T06:42:24.204Z,87.80
2022-12-01T06:44:51.986Z,89.50
2022-12-01T06:47:19.828Z,91.10
2022-12-01T06:49:48.017Z,90.50
2022-12-01T06:52:16.050Z,91.20
2022-12-01T06:54:43.802Z,91.00
2022-12-01T06:57:11.959Z,90.80
2022-12-01T06:59:39.981Z,88.70
2022-12-01T07:02:11.871Z,90.60
2022-12-01T07:04:39.717Z,90.10
2022-12-01T07:07:07.582Z,90.60
2022-12-01T07:09:35.536Z,89.90
2022-12-01T07:12:03.512Z,90.60
2022-12-01T07:14:32.464Z,90.10
2022-12-01T07:17:00.320Z,90.90
2022-12-01T07:19:28.209Z,90.60
2022-12-01T07:21:56.286Z,90.70
2022-12-01T07:24:24.058Z,90.30
2022-12-01T07:26:51.849Z,90.40
2022-12-01T07:29:19.684Z,89.30
2022-12-01T07:31:47.478Z,91.10
2022-12-01T07:34:15.326Z,91.10
2022-12-01T07:36:43.154Z,90.10
2022-12-01T07:39:10.908Z,90.90
2022-12-01T07:41:38.711Z,91.40
2022-12-01T07:44:06.819Z,93.00
2022-12-01T07:46:34.651Z,93.30
2022-12-01T07:49:07.172Z,92.60
2022-12-01T07:51:35.148Z,93.30
2022-12-01T07:54:05.571Z,93.30
2022-12-01T07:56:35.248Z,92.40
2022-12-01T07:59:03.568Z,92.30
2022-12-01T08:01:31.480Z,93.50
2022-12-01T08:04:00.317Z,93.90
2022-12-01T08:06:28.429Z,94.60
2022-12-01T08:08:57.008Z,94.30
2022-12-01T08:11:29.507Z,95.20
2022-12-01T08:13:57.888Z,94.60
2022-12-01T08:16:26.065Z,94.40
2022-12-01T08:18:54.322Z,94.20
2022-12-01T08:21:24.145Z,94.10
2022-12-01T08:23:57.343Z,95.20
2022-12-01T08:26:27.005Z,96.70
2022-12-01T08:28:55.006Z,97.20
2022-12-01T08:31:27.471Z,96.10
2022-12-01T08:33:55.892Z,96.20
2022-12-01T08:36:24.609Z,96.30
2022-12-01T08:38:55.698Z,95.80
2022-12-01T08:41:24.716Z,97.30
2022-12-01T08:43:58.404Z,95.50
2022-12-01T08:46:31.440Z,95.20
2022-12-01T08:49:00.168Z,96.70
2022-12-01T08:51:28.558Z,96.10
2022-12-01T08:53:58.614Z,96.40
2022-12-01T08:56:37.214Z,95.40
2022-12-01T08:59:06.216Z,95.60
2022-12-01T09:01:34.933Z,95.50
2022-12-01T09:04:08.386Z,94.20
2022-12-01T09:06:46.928Z,93.70
2022-12-01T09:09:18.892Z,93.60
2022-12-01T09:11:47.970Z,93.60
2022-12-01T09:14:18.218Z,92.80
2022-12-01T09:16:49.800Z,91.60
2022-12-01T09:19:24.713Z,91.10
2022-12-01T09:21:53.197Z,92.00
2022-12-01T09:24:21.220Z,92.00
2022-12-01T09:26:49.250Z,92.50
2022-12-01T09:29:17.558Z,92.90
2022-12-01T09:31:45.397Z,92.50
2022-12-01T09:34:20.110Z,92.10
2022-12-01T09:36:48.888Z,92.30
2022-12-01T09:39:19.836Z,92.70
2022-12-01T09:42:09.121Z,92.30
2022-12-01T09:44:55.921Z,92.10
2022-12-01T09:47:37.015Z,92.20
2022-12-01T09:50:16.491Z,93.50
2022-12-01T09:52:50.871Z,94.40
2022-12-01T09:55:21.956Z,95.40
2022-12-01T09:57:55.949Z,95.50
2022-12-01T10:00:25.786Z,95.50
2022-12-01T10:03:56.907Z,95.80
2022-12-01T10:06:40.393Z,95.60
2022-12-01T10:09:26.403Z,95.80
2022-12-01T10:12:13.446Z,97.70
2022-12-01T10:14:41.274Z,97.30
2022-12-01T10:17:43.259Z,95.80
2022-12-01T10:21:01.002Z,96.40
2022-12-01T10:23:47.834Z,96.30
2022-12-01T10:26:32.775Z,96.30
2022-12-01T10:29:41.838Z,97.80
2022-12-01T10:32:32.909Z,98.30
2022-12-01T10:35:01.603Z,97.60
2022-12-01T10:37:31.827Z,95.50
2022-12-01T10:40:00.677Z,95.60
2022-12-01T10:42:49.104Z,94.60
2022-12-01T10:45:33.888Z,95.30
2022-12-01T10:48:22.819Z,95.40
2022-12-01T10:50:57.561Z,95.50
2022-12-01T10:53:34.002Z,95.70
2022-12-01T10:56:20.945Z,95.30
2022-12-01T10:59:05.059Z,95.90
2022-12-01T11:01:37.060Z,96.00
2022-12-01T11:04:22.730Z,94.60
2022-12-01T11:06:51.515Z,95.00
2022-12-01T11:09:26.577Z,95.90
2022-12-01T11:12:01.620Z,93.90
2022-12-01T11:14:54.829Z,93.60
2022-12-01T11:17:43.256Z,95.70
2022-12-01T11:20:39.551Z,93.90
2022-12-01T11:23:10.208Z,94.70
2022-12-01T11:25:38.635Z,95.20
2022-12-01T11:28:06.801Z,95.20
2022-12-01T11:30:34.677Z,94.70
2022-12-01T11:33:04.522Z,94.90
2022-12-01T11:35:36.970Z,95.00
2022-12-01T11:40:58.703Z,95.40
2022-12-01T11:43:37.786Z,95.50
2022-12-01T11:46:09.269Z,96.70
2022-12-01T11:48:37.368Z,95.30
2022-12-01T11:51:05.182Z,97.40
2022-12-01T11:53:42.758Z,97.20
2022-12-01T11:56:13.797Z,96.20
2022-12-01T11:58:43.591Z,97.20
2022-12-01T12:01:28.885Z,96.90
2022-12-01T12:04:42.970Z,96.10
2022-12-01T12:07:50.875Z,95.50
2022-12-01T12:10:56.664Z,96.20
2022-12-01T12:13:48.798Z,95.30
2022-12-01T12:16:45.434Z,96.20
2022-12-01T12:23:11.817Z,94.70
2022-12-01T12:25:54.708Z,93.20
2022-12-01T12:28:37.930Z,93.20
2022-12-01T12:31:35.176Z,94.70
2022-12-01T12:34:12.961Z,93.50
2022-12-01T12:37:08.173Z,95.00
2022-12-01T12:40:16.300Z,95.30
2022-12-01T12:42:56.432Z,94.30
2022-12-01T12:46:11.484Z,95.80
2022-12-01T12:49:18.560Z,96.00
2022-12-01T12:52:25.193Z,95.40
2022-12-01T12:55:00.213Z,95.60
2022-12-01T12:57:53.815Z,95.10
2022-12-01T13:00:28.420Z,96.10
2022-12-01T13:03:19.453Z,96.50
2022-12-01T13:06:08.433Z,96.70
2022-12-01T13:09:04.370Z,96.40
2022-12-01T13:11:55.479Z,95.60
2022-12-01T13:14:46.466Z,95.30
2022-12-01T13:17:27.439Z,94.10
2022-12-01T13:19:55.186Z,94.70
2022-12-01T13:22:32.350Z,95.00
2022-12-01T13:25:00.411Z,94.00
2022-12-01T13:27:34.117Z,94.50
2022-12-01T13:30:02.701Z,94.00
2022-12-01T13:32:36.824Z,95.20
2022-12-01T13:35:30.714Z,95.70
2022-12-01T13:38:24.995Z,95.00
2022-12-01T13:41:23.629Z,95.60
2022-12-01T13:44:31.850Z,95.50
2022-12-01T13:47:51.536Z,95.10
2022-12-01T13:50:42.940Z,95.70
2022-12-01T13:53:36.408Z,96.10
2022-12-01T13:56:04.109Z,96.00
2022-12-01T13:58:34.894Z,96.10
2022-12-01T14:01:20.959Z,95.00
2022-12-01T14:04:27.011Z,95.80
2022-12-01T14:07:20.851Z,96.20
2022-12-01T14:09:52.592Z,96.40
2022-12-01T14:12:34.639Z,95.80
2022-12-01T14:15:23.705Z,95.70
2022-12-01T14:18:18.916Z,97.40
2022-12-01T14:20:48.692Z,96.30
2022-12-01T14:23:59.572Z,96.70
2022-12-01T14:26:30.310Z,96.20
2022-12-01T14:29:24.747Z,95.60
2022-12-01T14:31:53.029Z,96.40
2022-12-01T14:34:29.371Z,96.90
2022-12-01T14:37:18.425Z,96.80
2022-12-01T14:40:05.795Z,95.90
2022-12-01T14:43:06.943Z,96.30
2022-12-01T14:45:53.100Z,96.80
2022-12-01T14:48:32.339Z,96.80
2022-12-01T14:51:29.975Z,97.90
2022-12-01T14:54:01.077Z,96.30
2022-12-01T14:56:30.323Z,97.20
2022-12-01T14:59:01.629Z,96.60
2022-12-01T15:01:38.032Z,96.70
2022-12-01T15:04:06.937Z,97.10
2022-12-01T15:06:37.473Z,97.20
2022-12-01T15:09:36.623Z,97.30
2022-12-01T15:12:09.321Z,96.70
2022-12-01T15:14:46.918Z,97.40
2022-12-01T15:21:34.152Z,98.60
2022-12-01T15:24:06.585Z,99.60
2022-12-01T15:26:45.462Z,99.50
2022-12-01T15:29:53.725Z,99.90
2022-12-01T15:32:23.899Z,99.90
2022-12-01T15:34:55.387Z,99.90
2022-12-01T15:37:27.291Z,99.90
2022-12-01T15:40:47.802Z,99.90
2022-12-01T15:43:26.735Z,99.90
2022-12-01T15:45:59.872Z,99.90
2022-12-01T15:48:36.461Z,99.90
2022-12-01T15:51:19.288Z,99.90
2022-12-01T15:54:01.792Z,99.90
2022-12-01T15:56:39.902Z,99.90
2022-12-01T15:59:26.004Z,99.90
2022-12-01T16:01:54.553Z,99.90
2022-12-01T16:04:28.150Z,99.90
2022-12-01T16:07:50.173Z,99.90
2022-12-01T16:10:44.730Z,99.90
2022-12-01T16:14:04.861Z,99.90
2022-12-01T16:16:45.580Z,99.90
2022-12-01T16:19:19.541Z,99.90
2022-12-01T16:21:50.429Z,99.90
2022-12-01T16:24:28.855Z,99.90
2022-12-01T16:27:06.062Z,99.90
2022-12-01T16:30:23.513Z,99.90
2022-12-01T16:32:52.059Z,99.90
2022-12-01T16:35:31.823Z,99.90
2022-12-01T16:38:10.828Z,99.90
2022-12-01T16:40:44.992Z,99.90
2022-12-01T16:43:24.448Z,99.90
2022-12-01T16:46:01.334Z,99.90
2022-12-01T16:48:30.642Z,99.90
2022-12-01T16:51:04.036Z,99.90
2022-12-01T16:53:32.052Z,99.90
2022-12-01T16:56:02.216Z,99.90
2022-12-01T16:58:30.197Z,99.90
2022-12-01T17:00:58.659Z,99.90
2022-12-01T17:03:28.378Z,99.90
2022-12-01T17:05:59.107Z,99.90
2022-12-01T17:08:27.231Z,99.90
2022-12-01T17:10:55.488Z,99.90
2022-12-01T17:13:23.760Z,99.90
2022-12-01T17:15:54.553Z,99.90
2022-12-01T17:18:24.302Z,99.90
2022-12-01T17:21:06.216Z,99.90
2022-12-01T17:23:34.715Z,99.90
2022-12-01T17:26:06.338Z,99.90
2022-12-01T17:28:34.432Z,99.90
2022-12-01T17:31:03.463Z,99.90
2022-12-01T17:33:31.754Z,99.90
2022-12-01T17:36:20.717Z,99.90
2022-12-01T17:38:48.965Z,99.90
2022-12-01T17:41:25.491Z,99.90
2022-12-01T17:43:53.303Z,99.90
2022-12-01T17:46:21.205Z,99.90
2022-12-01T17:48:49.247Z,99.90
2022-12-01T17:51:17.081Z,99.90
2022-12-01T17:53:44.933Z,99.90
2022-12-01T17:56:16.017Z,99.90
2022-12-01T17:58:44.316Z,99.90
2022-12-01T18:01:18.676Z,99.90
2022-12-01T18:03:48.107Z,99.90
2022-12-01T18:06:17.628Z,99.90
2022-12-01T18:08:46.120Z,99.90
2022-12-01T18:11:16.398Z,99.90
2022-12-01T18:13:49.079Z,99.90
2022-12-01T18:16:30.199Z,99.90
2022-12-01T18:18:59.931Z,99.90
2022-12-01T18:21:28.758Z,99.90
2022-12-01T18:24:03.259Z,99.90
2022-12-01T18:26:33.560Z,99.90
2022-12-01T18:29:16.095Z,99.90
2022-12-01T18:31:45.076Z,99.90
2022-12-01T18:34:12.988Z,99.90
2022-12-01T18:36:42.138Z,99.90
2022-12-01T18:39:11.940Z,99.90
2022-12-01T18:41:40.580Z,99.90
2022-12-01T18:44:08.812Z,99.90
2022-12-01T18:46:36.682Z,99.90
2022-12-01T18:49:06.766Z,99.90
2022-12-01T18:51:37.412Z,99.90
2022-12-01T18:54:08.519Z,99.90
2022-12-01T18:56:37.861Z,99.90
2022-12-01T18:59:08.653Z,99.90
2022-12-01T19:01:40.214Z,99.90
2022-12-01T19:04:10.289Z,99.90
2022-12-01T19:06:40.351Z,99.90
2022-12-01T19:09:12.376Z,99.90
2022-12-01T19:11:41.900Z,99.90
2022-12-01T19:14:18.765Z,99.90
2022-12-01T19:16:47.370Z,99.90
2022-12-01T19:19:16.322Z,99.90
2022-12-01T19:21:45.464Z,99.90
2022-12-01T19:24:13.793Z,99.90
2022-12-01T19:26:41.663Z,99.90
2022-12-01T19:29:09.672Z,99.90
2022-12-01T19:31:37.799Z,99.90
2022-12-01T19:34:05.987Z,99.90
2022-12-01T19:36:33.952Z,99.90
2022-12-01T19:39:04.322Z,99.90
2022-12-01T19:41:38.561Z,99.90
2022-12-01T19:44:06.687Z,99.90
2022-12-01T19:46:34.565Z,99.90
2022-12-01T19:49:03.379Z,99.90
2022-12-01T19:51:35.394Z,99.90
2022-12-01T19:54:11.019Z,99.90
2022-12-01T19:56:38.940Z,99.90
2022-12-01T19:59:08.066Z,99.90
2022-12-01T20:01:35.939Z,99.90
2022-12-01T20:04:04.662Z,99.90
2022-12-01T20:06:35.705Z,99.90
2022-12-01T20:09:07.202Z,99.90
2022-12-01T20:11:35.724Z,99.90
2022-12-01T20:14:07.475Z,99.90
2022-12-01T20:16:35.899Z,99.90
2022-12-01T20:19:05.447Z,99.90
2022-12-01T20:21:42.365Z,99.90
2022-12-01T20:24:17.399Z,99.90
2022-12-01T20:26:49.659Z,99.90
2022-12-01T20:29:25.202Z,99.90
2022-12-01T20:31:56.341Z,99.90
2022-12-01T20:34:31.661Z,99.90
2022-12-01T20:37:00.569Z,99.90
2022-12-01T20:39:31.456Z,99.90
2022-12-01T20:41:59.259Z,99.90
2022-12-01T20:44:28.262Z,99.90
2022-12-01T20:46:56.441Z,99.90
2022-12-01T20:49:24.447Z,99.90
2022-12-01T20:51:52.386Z,99.90
2022-12-01T20:54:29.574Z,99.90
2022-12-01T20:56:59.255Z,99.90
2022-12-01T20:59:27.539Z,99.90
2022-12-01T21:01:55.559Z,99.90
2022-12-01T21:04:23.516Z,99.90
2022-12-01T21:06:55.772Z,99.90
2022-12-01T21:09:23.605Z,99.90
2022-12-01T21:12:10.405Z,99.90
2022-12-01T21:14:48.768Z,99.90
2022-12-01T21:18:00.727Z,99.90
2022-12-01T21:20:39.293Z,99.90
2022-12-01T21:23:12.647Z,99.90
2022-12-01T21:25:42.586Z,99.90
2022-12-01T21:28:20.195Z,99.90
2022-12-01T21:30:49.700Z,99.90
2022-12-01T21:33:41.065Z,99.90
2022-12-01T21:36:21.829Z,99.90
2022-12-01T21:38:56.030Z,99.90
2022-12-01T21:41:31.597Z,99.90
2022-12-01T21:44:16.693Z,99.90
2022-12-01T21:46:45.176Z,99.90
2022-12-01T21:49:21.398Z,99.90
2022-12-01T21:51:51.965Z,99.90
2022-12-01T21:54:21.610Z,99.90
2022-12-01T21:56:52.284Z,99.90
2022-12-01T21:59:23.047Z,99.90
2022-12-01T22:01:57.501Z,99.90
2022-12-01T22:04:31.339Z,99.90
2022-12-01T22:06:59.582Z,99.90
2022-12-01T22:09:35.922Z,99.90
2022-12-01T22:12:28.998Z,99.90
2022-12-01T22:15:01.604Z,99.90
2022-12-01T22:17:30.173Z,99.90
2022-12-01T22:20:02.365Z,99.90
2022-12-01T22:22:32.834Z,99.90
2022-12-01T22:25:26.311Z,99.90
2022-12-01T22:27:54.601Z,99.90
2022-12-01T22:30:24.121Z,99.90
2022-12-01T22:32:59.305Z,99.90
2022-12-01T22:35:29.845Z,99.90
2022-12-01T22:38:06.443Z,99.90
2022-12-01T22:40:38.239Z,99.90
2022-12-01T22:43:17.981Z,99.90
2022-12-01T22:45:48.503Z,99.90
2022-12-01T22:48:28.059Z,99.90
2022-12-01T22:50:58.585Z,99.90
2022-12-01T22:53:31.391Z,99.90
2022-12-01T22:56:01.578Z,99.90
2022-12-01T22:58:41.151Z,99.90
2022-12-01T23:01:31.010Z,99.90
2022-12-01T23:04:32.799Z,99.90
2022-12-01T23:07:28.009Z,99.90
2022-12-01T23:10:14.570Z,99.90
2022-12-01T23:12:44.212Z,99.90
2022-12-01T23:15:39.468Z,99.90
2022-12-01T23:18:27.043Z,99.90
2022-12-01T23:21:02.481Z,99.90
2022-12-01T23:23:36.417Z,99.90
2022-12-01T23:26:08.197Z,99.90
2022-12-01T23:28:38.851Z,99.90
2022-12-01T23:31:06.958Z,99.90
2022-12-01T23:33:35.613Z,99.90
2022-12-01T23:36:18.800Z,99.90
2022-12-01T23:38:52.973Z,99.90
2022-12-01T23:41:39.382Z,99.90
2022-12-01T23:44:41.903Z,99.90
2022-12-01T23:47:22.249Z,99.90
2022-12-01T23:50:03.529Z,99.90
2022-12-01T23:52:36.169Z,99.90
2022-12-01T23:55:25.709Z,99.90
2022-12-01T23:57:54.477Z,99.90
